sensor_id;sensor_type;location;lat;lon;timestamp;P1;durP1;ratioP1;P2;durP2;ratioP2
73296;SDS011;61524;50.938;11.396;2023-04-28T00:00:44;17.50;;;8.15;;
73296;SDS011;61524;50.938;11.396;2023-04-28T00:03:11;13.82;;;8.13;;
73296;SDS011;61524;50.938;11.396;2023-04-28T00:05:37;17.10;;;8.52;;
73296;SDS011;61524;50.938;11.396;2023-04-28T00:08:02;18.40;;;9.23;;
73296;SDS011;61524;50.938;11.396;2023-04-28T00:10:29;13.50;;;8.80;;
73296;SDS011;61524;50.938;11.396;2023-04-28T00:12:55;16.30;;;8.93;;
73296;SDS011;61524;50.938;11.396;2023-04-28T00:15:20;14.73;;;8.50;;
73296;SDS011;61524;50.938;11.396;2023-04-28T00:17:46;11.77;;;7.32;;
73296;SDS011;61524;50.938;11.396;2023-04-28T00:20:11;13.77;;;8.07;;
73296;SDS011;61524;50.938;11.396;2023-04-28T00:22:37;11.60;;;7.63;;
73296;SDS011;61524;50.938;11.396;2023-04-28T00:25:03;11.57;;;7.70;;
73296;SDS011;61524;50.938;11.396;2023-04-28T00:27:29;16.58;;;7.55;;
73296;SDS011;61524;50.938;11.396;2023-04-28T00:29:54;13.25;;;7.63;;
73296;SDS011;61524;50.938;11.396;2023-04-28T00:32:20;12.88;;;8.38;;
73296;SDS011;61524;50.938;11.396;2023-04-28T00:34:45;13.73;;;7.35;;
73296;SDS011;61524;50.938;11.396;2023-04-28T00:37:11;12.25;;;7.78;;
73296;SDS011;61524;50.938;11.396;2023-04-28T00:39:36;15.43;;;8.20;;
73296;SDS011;61524;50.938;11.396;2023-04-28T00:42:02;14.77;;;8.68;;
73296;SDS011;61524;50.938;11.396;2023-04-28T00:44:28;14.13;;;8.32;;
73296;SDS011;61524;50.938;11.396;2023-04-28T00:46:53;15.35;;;8.57;;
73296;SDS011;61524;50.938;11.396;2023-04-28T00:49:20;13.65;;;7.75;;
73296;SDS011;61524;50.938;11.396;2023-04-28T00:51:45;16.92;;;8.70;;
73296;SDS011;61524;50.938;11.396;2023-04-28T00:54:14;15.32;;;8.05;;
73296;SDS011;61524;50.938;11.396;2023-04-28T00:56:39;12.95;;;7.70;;
73296;SDS011;61524;50.938;11.396;2023-04-28T00:59:05;13.85;;;8.15;;
73296;SDS011;61524;50.938;11.396;2023-04-28T01:01:31;15.27;;;8.57;;
73296;SDS011;61524;50.938;11.396;2023-04-28T01:03:57;14.73;;;8.35;;
73296;SDS011;61524;50.938;11.396;2023-04-28T01:06:23;14.25;;;8.05;;
73296;SDS011;61524;50.938;11.396;2023-04-28T01:08:49;14.40;;;8.35;;
73296;SDS011;61524;50.938;11.396;2023-04-28T01:11:18;13.05;;;8.63;;
73296;SDS011;61524;50.938;11.396;2023-04-28T01:13:43;16.58;;;7.85;;
73296;SDS011;61524;50.938;11.396;2023-04-28T01:16:08;12.85;;;8.27;;
73296;SDS011;61524;50.938;11.396;2023-04-28T01:18:35;12.60;;;8.65;;
73296;SDS011;61524;50.938;11.396;2023-04-28T01:21:00;13.68;;;9.73;;
73296;SDS011;61524;50.938;11.396;2023-04-28T01:23:28;16.30;;;8.88;;
73296;SDS011;61524;50.938;11.396;2023-04-28T01:25:53;20.10;;;8.60;;
73296;SDS011;61524;50.938;11.396;2023-04-28T01:28:19;12.68;;;8.50;;
73296;SDS011;61524;50.938;11.396;2023-04-28T01:30:44;13.23;;;8.48;;
73296;SDS011;61524;50.938;11.396;2023-04-28T01:33:10;13.82;;;7.95;;
73296;SDS011;61524;50.938;11.396;2023-04-28T01:35:35;13.32;;;9.43;;
73296;SDS011;61524;50.938;11.396;2023-04-28T01:38:00;12.77;;;8.98;;
73296;SDS011;61524;50.938;11.396;2023-04-28T01:40:29;17.48;;;10.23;;
73296;SDS011;61524;50.938;11.396;2023-04-28T01:42:54;14.30;;;8.50;;
73296;SDS011;61524;50.938;11.396;2023-04-28T01:45:20;20.13;;;9.68;;
73296;SDS011;61524;50.938;11.396;2023-04-28T01:47:45;14.50;;;8.70;;
73296;SDS011;61524;50.938;11.396;2023-04-28T01:50:11;18.98;;;9.25;;
73296;SDS011;61524;50.938;11.396;2023-04-28T01:52:36;12.75;;;8.38;;
73296;SDS011;61524;50.938;11.396;2023-04-28T01:55:02;15.25;;;8.70;;
73296;SDS011;61524;50.938;11.396;2023-04-28T01:57:27;12.75;;;8.65;;
73296;SDS011;61524;50.938;11.396;2023-04-28T01:59:53;13.80;;;9.00;;
73296;SDS011;61524;50.938;11.396;2023-04-28T02:02:19;15.68;;;10.02;;
73296;SDS011;61524;50.938;11.396;2023-04-28T02:04:44;18.42;;;10.00;;
73296;SDS011;61524;50.938;11.396;2023-04-28T02:07:10;17.77;;;9.63;;
73296;SDS011;61524;50.938;11.396;2023-04-28T02:09:35;16.27;;;9.48;;
73296;SDS011;61524;50.938;11.396;2023-04-28T02:12:01;15.52;;;9.60;;
73296;SDS011;61524;50.938;11.396;2023-04-28T02:14:26;14.10;;;8.80;;
73296;SDS011;61524;50.938;11.396;2023-04-28T02:16:52;14.68;;;9.48;;
73296;SDS011;61524;50.938;11.396;2023-04-28T02:19:18;15.20;;;9.73;;
73296;SDS011;61524;50.938;11.396;2023-04-28T02:21:43;15.00;;;8.60;;
73296;SDS011;61524;50.938;11.396;2023-04-28T02:24:09;13.85;;;8.25;;
73296;SDS011;61524;50.938;11.396;2023-04-28T02:26:34;14.98;;;9.07;;
73296;SDS011;61524;50.938;11.396;2023-04-28T02:29:00;14.13;;;8.68;;
73296;SDS011;61524;50.938;11.396;2023-04-28T02:31:28;16.30;;;8.38;;
73296;SDS011;61524;50.938;11.396;2023-04-28T02:33:53;14.35;;;8.77;;
73296;SDS011;61524;50.938;11.396;2023-04-28T02:36:19;14.43;;;8.77;;
73296;SDS011;61524;50.938;11.396;2023-04-28T02:38:44;17.33;;;9.20;;
73296;SDS011;61524;50.938;11.396;2023-04-28T02:41:09;15.75;;;8.30;;
73296;SDS011;61524;50.938;11.396;2023-04-28T02:43:35;16.88;;;8.90;;
73296;SDS011;61524;50.938;11.396;2023-04-28T02:46:02;13.55;;;9.50;;
73296;SDS011;61524;50.938;11.396;2023-04-28T02:48:28;14.98;;;9.98;;
73296;SDS011;61524;50.938;11.396;2023-04-28T02:50:54;15.73;;;10.35;;
73296;SDS011;61524;50.938;11.396;2023-04-28T02:53:19;16.60;;;10.02;;
73296;SDS011;61524;50.938;11.396;2023-04-28T02:55:46;17.33;;;10.27;;
73296;SDS011;61524;50.938;11.396;2023-04-28T02:58:11;15.45;;;8.65;;
73296;SDS011;61524;50.938;11.396;2023-04-28T03:00:37;17.05;;;10.40;;
73296;SDS011;61524;50.938;11.396;2023-04-28T03:03:02;15.30;;;8.45;;
73296;SDS011;61524;50.938;11.396;2023-04-28T03:05:28;15.68;;;9.50;;
73296;SDS011;61524;50.938;11.396;2023-04-28T03:07:53;16.80;;;9.60;;
73296;SDS011;61524;50.938;11.396;2023-04-28T03:10:19;15.95;;;9.43;;
73296;SDS011;61524;50.938;11.396;2023-04-28T03:12:45;15.48;;;9.18;;
73296;SDS011;61524;50.938;11.396;2023-04-28T03:15:10;15.85;;;10.57;;
73296;SDS011;61524;50.938;11.396;2023-04-28T03:17:36;17.38;;;11.00;;
73296;SDS011;61524;50.938;11.396;2023-04-28T03:20:05;18.55;;;11.48;;
73296;SDS011;61524;50.938;11.396;2023-04-28T03:22:32;16.95;;;11.00;;
73296;SDS011;61524;50.938;11.396;2023-04-28T03:24:57;15.32;;;10.90;;
73296;SDS011;61524;50.938;11.396;2023-04-28T03:27:23;16.73;;;9.13;;
73296;SDS011;61524;50.938;11.396;2023-04-28T03:29:49;15.70;;;10.30;;
73296;SDS011;61524;50.938;11.396;2023-04-28T03:32:14;16.33;;;10.73;;
73296;SDS011;61524;50.938;11.396;2023-04-28T03:34:40;15.75;;;10.80;;
73296;SDS011;61524;50.938;11.396;2023-04-28T03:37:05;17.55;;;10.32;;
73296;SDS011;61524;50.938;11.396;2023-04-28T03:39:31;16.45;;;11.02;;
73296;SDS011;61524;50.938;11.396;2023-04-28T03:41:56;16.00;;;9.50;;
73296;SDS011;61524;50.938;11.396;2023-04-28T03:44:22;16.45;;;9.70;;
73296;SDS011;61524;50.938;11.396;2023-04-28T03:46:47;15.95;;;10.80;;
73296;SDS011;61524;50.938;11.396;2023-04-28T03:49:13;17.52;;;10.40;;
73296;SDS011;61524;50.938;11.396;2023-04-28T03:51:39;16.55;;;10.10;;
73296;SDS011;61524;50.938;11.396;2023-04-28T03:54:05;17.48;;;11.45;;
73296;SDS011;61524;50.938;11.396;2023-04-28T03:56:30;16.02;;;10.43;;
73296;SDS011;61524;50.938;11.396;2023-04-28T03:58:56;14.82;;;9.50;;
73296;SDS011;61524;50.938;11.396;2023-04-28T04:01:21;14.55;;;8.80;;
73296;SDS011;61524;50.938;11.396;2023-04-28T04:03:47;20.48;;;10.85;;
73296;SDS011;61524;50.938;11.396;2023-04-28T04:06:12;13.75;;;9.60;;
73296;SDS011;61524;50.938;11.396;2023-04-28T04:08:38;15.55;;;11.27;;
73296;SDS011;61524;50.938;11.396;2023-04-28T04:11:04;17.77;;;10.63;;
73296;SDS011;61524;50.938;11.396;2023-04-28T04:13:29;20.15;;;11.30;;
73296;SDS011;61524;50.938;11.396;2023-04-28T04:15:55;19.58;;;10.75;;
73296;SDS011;61524;50.938;11.396;2023-04-28T04:18:20;15.95;;;9.65;;
73296;SDS011;61524;50.938;11.396;2023-04-28T04:20:46;14.85;;;10.10;;
73296;SDS011;61524;50.938;11.396;2023-04-28T04:23:11;12.80;;;9.13;;
73296;SDS011;61524;50.938;11.396;2023-04-28T04:25:37;18.25;;;10.23;;
73296;SDS011;61524;50.938;11.396;2023-04-28T04:28:02;18.02;;;10.98;;
73296;SDS011;61524;50.938;11.396;2023-04-28T04:30:28;20.23;;;9.68;;
73296;SDS011;61524;50.938;11.396;2023-04-28T04:32:53;15.40;;;9.68;;
73296;SDS011;61524;50.938;11.396;2023-04-28T04:35:19;17.13;;;11.60;;
73296;SDS011;61524;50.938;11.396;2023-04-28T04:37:44;15.65;;;9.23;;
73296;SDS011;61524;50.938;11.396;2023-04-28T04:40:10;16.63;;;9.05;;
73296;SDS011;61524;50.938;11.396;2023-04-28T04:42:36;13.95;;;8.20;;
73296;SDS011;61524;50.938;11.396;2023-04-28T04:45:01;13.85;;;9.60;;
73296;SDS011;61524;50.938;11.396;2023-04-28T04:47:27;13.70;;;8.63;;
73296;SDS011;61524;50.938;11.396;2023-04-28T04:49:52;14.48;;;9.32;;
73296;SDS011;61524;50.938;11.396;2023-04-28T04:52:18;14.68;;;8.45;;
73296;SDS011;61524;50.938;11.396;2023-04-28T04:54:43;15.93;;;9.10;;
73296;SDS011;61524;50.938;11.396;2023-04-28T04:57:10;15.73;;;9.60;;
73296;SDS011;61524;50.938;11.396;2023-04-28T04:59:36;12.60;;;8.93;;
73296;SDS011;61524;50.938;11.396;2023-04-28T05:02:01;16.10;;;9.70;;
73296;SDS011;61524;50.938;11.396;2023-04-28T05:04:27;13.80;;;8.32;;
73296;SDS011;61524;50.938;11.396;2023-04-28T05:06:53;15.52;;;9.65;;
73296;SDS011;61524;50.938;11.396;2023-04-28T05:09:18;13.40;;;8.40;;
73296;SDS011;61524;50.938;11.396;2023-04-28T05:11:44;13.77;;;9.70;;
73296;SDS011;61524;50.938;11.396;2023-04-28T05:14:10;14.32;;;8.40;;
73296;SDS011;61524;50.938;11.396;2023-04-28T05:16:36;14.48;;;8.45;;
73296;SDS011;61524;50.938;11.396;2023-04-28T05:19:02;18.15;;;8.75;;
73296;SDS011;61524;50.938;11.396;2023-04-28T05:21:28;17.25;;;9.18;;
73296;SDS011;61524;50.938;11.396;2023-04-28T05:23:53;12.98;;;8.65;;
73296;SDS011;61524;50.938;11.396;2023-04-28T05:26:20;15.02;;;9.27;;
73296;SDS011;61524;50.938;11.396;2023-04-28T05:28:45;15.05;;;9.32;;
73296;SDS011;61524;50.938;11.396;2023-04-28T05:31:11;16.65;;;10.13;;
73296;SDS011;61524;50.938;11.396;2023-04-28T05:33:36;13.23;;;9.40;;
73296;SDS011;61524;50.938;11.396;2023-04-28T05:36:01;15.60;;;9.85;;
73296;SDS011;61524;50.938;11.396;2023-04-28T05:38:27;14.75;;;9.18;;
73296;SDS011;61524;50.938;11.396;2023-04-28T05:40:53;15.60;;;9.80;;
73296;SDS011;61524;50.938;11.396;2023-04-28T05:43:18;15.23;;;9.65;;
73296;SDS011;61524;50.938;11.396;2023-04-28T05:45:44;13.75;;;9.30;;
73296;SDS011;61524;50.938;11.396;2023-04-28T05:48:09;14.50;;;9.65;;
73296;SDS011;61524;50.938;11.396;2023-04-28T05:50:35;15.50;;;9.60;;
73296;SDS011;61524;50.938;11.396;2023-04-28T05:53:00;14.25;;;9.35;;
73296;SDS011;61524;50.938;11.396;2023-04-28T05:55:26;19.50;;;11.52;;
73296;SDS011;61524;50.938;11.396;2023-04-28T05:57:52;17.48;;;10.63;;
73296;SDS011;61524;50.938;11.396;2023-04-28T06:00:18;18.30;;;11.38;;
73296;SDS011;61524;50.938;11.396;2023-04-28T06:02:43;17.95;;;11.30;;
73296;SDS011;61524;50.938;11.396;2023-04-28T06:05:09;17.33;;;11.20;;
73296;SDS011;61524;50.938;11.396;2023-04-28T06:07:35;16.80;;;11.32;;
73296;SDS011;61524;50.938;11.396;2023-04-28T06:10:00;19.75;;;10.75;;
73296;SDS011;61524;50.938;11.396;2023-04-28T06:12:26;17.17;;;11.25;;
73296;SDS011;61524;50.938;11.396;2023-04-28T06:14:51;15.90;;;10.18;;
73296;SDS011;61524;50.938;11.396;2023-04-28T06:17:19;16.77;;;10.40;;
73296;SDS011;61524;50.938;11.396;2023-04-28T06:19:45;19.77;;;11.13;;
73296;SDS011;61524;50.938;11.396;2023-04-28T06:22:11;15.77;;;10.88;;
73296;SDS011;61524;50.938;11.396;2023-04-28T06:24:36;17.85;;;10.38;;
73296;SDS011;61524;50.938;11.396;2023-04-28T06:27:02;15.93;;;11.65;;
73296;SDS011;61524;50.938;11.396;2023-04-28T06:29:27;17.70;;;8.85;;
73296;SDS011;61524;50.938;11.396;2023-04-28T06:31:53;16.00;;;10.88;;
73296;SDS011;61524;50.938;11.396;2023-04-28T06:34:23;13.85;;;9.90;;
73296;SDS011;61524;50.938;11.396;2023-04-28T06:36:55;18.55;;;9.27;;
73296;SDS011;61524;50.938;11.396;2023-04-28T06:39:22;15.32;;;9.55;;
73296;SDS011;61524;50.938;11.396;2023-04-28T06:41:48;15.20;;;9.38;;
73296;SDS011;61524;50.938;11.396;2023-04-28T06:44:13;17.88;;;11.35;;
73296;SDS011;61524;50.938;11.396;2023-04-28T06:46:38;15.05;;;9.05;;
73296;SDS011;61524;50.938;11.396;2023-04-28T06:49:04;14.82;;;9.57;;
73296;SDS011;61524;50.938;11.396;2023-04-28T06:51:30;14.88;;;9.65;;
73296;SDS011;61524;50.938;11.396;2023-04-28T06:53:59;16.50;;;10.02;;
73296;SDS011;61524;50.938;11.396;2023-04-28T06:56:24;11.40;;;8.75;;
73296;SDS011;61524;50.938;11.396;2023-04-28T06:58:50;15.50;;;8.45;;
73296;SDS011;61524;50.938;11.396;2023-04-28T07:01:16;13.60;;;8.55;;
73296;SDS011;61524;50.938;11.396;2023-04-28T07:03:41;14.13;;;8.40;;
73296;SDS011;61524;50.938;11.396;2023-04-28T07:06:07;14.98;;;9.02;;
73296;SDS011;61524;50.938;11.396;2023-04-28T07:08:33;12.75;;;8.43;;
73296;SDS011;61524;50.938;11.396;2023-04-28T07:11:00;14.07;;;8.23;;
73296;SDS011;61524;50.938;11.396;2023-04-28T07:13:29;13.02;;;8.52;;
73296;SDS011;61524;50.938;11.396;2023-04-28T07:15:55;12.75;;;8.18;;
73296;SDS011;61524;50.938;11.396;2023-04-28T07:18:21;14.13;;;9.43;;
73296;SDS011;61524;50.938;11.396;2023-04-28T07:20:46;13.30;;;9.20;;
73296;SDS011;61524;50.938;11.396;2023-04-28T07:23:12;12.60;;;8.30;;
73296;SDS011;61524;50.938;11.396;2023-04-28T07:25:38;12.90;;;8.65;;
73296;SDS011;61524;50.938;11.396;2023-04-28T07:28:07;15.57;;;8.73;;
73296;SDS011;61524;50.938;11.396;2023-04-28T07:30:32;12.25;;;8.32;;
73296;SDS011;61524;50.938;11.396;2023-04-28T07:32:59;12.18;;;7.30;;
73296;SDS011;61524;50.938;11.396;2023-04-28T07:35:25;15.90;;;9.07;;
73296;SDS011;61524;50.938;11.396;2023-04-28T07:37:50;12.15;;;8.82;;
73296;SDS011;61524;50.938;11.396;2023-04-28T07:40:16;12.77;;;8.18;;
73296;SDS011;61524;50.938;11.396;2023-04-28T07:42:41;14.15;;;8.43;;
73296;SDS011;61524;50.938;11.396;2023-04-28T07:45:07;18.33;;;8.68;;
73296;SDS011;61524;50.938;11.396;2023-04-28T07:47:33;13.82;;;9.27;;
73296;SDS011;61524;50.938;11.396;2023-04-28T07:49:58;12.55;;;7.95;;
73296;SDS011;61524;50.938;11.396;2023-04-28T07:52:27;18.77;;;9.23;;
73296;SDS011;61524;50.938;11.396;2023-04-28T07:54:52;12.27;;;7.82;;
73296;SDS011;61524;50.938;11.396;2023-04-28T07:57:18;12.38;;;8.00;;
73296;SDS011;61524;50.938;11.396;2023-04-28T07:59:43;13.93;;;7.95;;
73296;SDS011;61524;50.938;11.396;2023-04-28T08:02:09;12.60;;;8.65;;
73296;SDS011;61524;50.938;11.396;2023-04-28T08:04:37;13.98;;;8.82;;
73296;SDS011;61524;50.938;11.396;2023-04-28T08:07:03;15.40;;;8.50;;
73296;SDS011;61524;50.938;11.396;2023-04-28T08:09:28;18.92;;;9.45;;
73296;SDS011;61524;50.938;11.396;2023-04-28T08:11:54;14.30;;;9.88;;
73296;SDS011;61524;50.938;11.396;2023-04-28T08:14:19;18.40;;;10.75;;
73296;SDS011;61524;50.938;11.396;2023-04-28T08:16:45;21.77;;;11.73;;
73296;SDS011;61524;50.938;11.396;2023-04-28T08:19:11;14.27;;;9.40;;
73296;SDS011;61524;50.938;11.396;2023-04-28T08:21:36;13.55;;;9.35;;
73296;SDS011;61524;50.938;11.396;2023-04-28T08:24:02;16.60;;;9.68;;
73296;SDS011;61524;50.938;11.396;2023-04-28T08:26:27;16.20;;;10.48;;
73296;SDS011;61524;50.938;11.396;2023-04-28T08:28:53;16.23;;;10.82;;
73296;SDS011;61524;50.938;11.396;2023-04-28T08:31:18;18.40;;;10.40;;
73296;SDS011;61524;50.938;11.396;2023-04-28T08:33:44;15.95;;;9.50;;
73296;SDS011;61524;50.938;11.396;2023-04-28T08:36:12;17.45;;;10.65;;
73296;SDS011;61524;50.938;11.396;2023-04-28T08:38:39;16.55;;;10.20;;
73296;SDS011;61524;50.938;11.396;2023-04-28T08:41:05;15.52;;;10.90;;
73296;SDS011;61524;50.938;11.396;2023-04-28T08:43:33;21.30;;;12.07;;
73296;SDS011;61524;50.938;11.396;2023-04-28T08:46:02;18.05;;;11.95;;
73296;SDS011;61524;50.938;11.396;2023-04-28T08:48:32;20.88;;;15.45;;
73296;SDS011;61524;50.938;11.396;2023-04-28T08:51:09;20.73;;;14.30;;
73296;SDS011;61524;50.938;11.396;2023-04-28T08:53:40;16.48;;;13.07;;
73296;SDS011;61524;50.938;11.396;2023-04-28T08:56:09;19.10;;;12.60;;
73296;SDS011;61524;50.938;11.396;2023-04-28T08:58:37;16.92;;;11.52;;
73296;SDS011;61524;50.938;11.396;2023-04-28T09:01:03;16.65;;;10.20;;
73296;SDS011;61524;50.938;11.396;2023-04-28T09:03:30;13.32;;;8.07;;
73296;SDS011;61524;50.938;11.396;2023-04-28T09:06:00;14.32;;;8.45;;
73296;SDS011;61524;50.938;11.396;2023-04-28T09:08:26;14.68;;;7.68;;
73296;SDS011;61524;50.938;11.396;2023-04-28T09:11:08;14.02;;;7.43;;
73296;SDS011;61524;50.938;11.396;2023-04-28T09:13:35;11.55;;;6.95;;
73296;SDS011;61524;50.938;11.396;2023-04-28T09:16:01;10.43;;;6.88;;
73296;SDS011;61524;50.938;11.396;2023-04-28T09:18:28;10.23;;;6.45;;
73296;SDS011;61524;50.938;11.396;2023-04-28T09:21:07;11.82;;;7.03;;
73296;SDS011;61524;50.938;11.396;2023-04-28T09:23:35;9.45;;;6.47;;
73296;SDS011;61524;50.938;11.396;2023-04-28T09:26:12;11.23;;;6.22;;
73296;SDS011;61524;50.938;11.396;2023-04-28T09:28:38;9.60;;;6.35;;
73296;SDS011;61524;50.938;11.396;2023-04-28T09:31:04;10.55;;;6.22;;
73296;SDS011;61524;50.938;11.396;2023-04-28T09:33:29;15.07;;;6.90;;
73296;SDS011;61524;50.938;11.396;2023-04-28T09:35:55;13.63;;;7.15;;
73296;SDS011;61524;50.938;11.396;2023-04-28T09:38:21;12.95;;;7.28;;
73296;SDS011;61524;50.938;11.396;2023-04-28T09:43:34;13.55;;;7.30;;
73296;SDS011;61524;50.938;11.396;2023-04-28T09:46:01;11.93;;;6.80;;
73296;SDS011;61524;50.938;11.396;2023-04-28T09:50:58;12.07;;;7.43;;
73296;SDS011;61524;50.938;11.396;2023-04-28T09:53:25;15.05;;;8.55;;
73296;SDS011;61524;50.938;11.396;2023-04-28T09:55:52;15.40;;;8.93;;
73296;SDS011;61524;50.938;11.396;2023-04-28T09:58:22;11.88;;;7.65;;
73296;SDS011;61524;50.938;11.396;2023-04-28T10:00:51;13.02;;;7.50;;
73296;SDS011;61524;50.938;11.396;2023-04-28T10:03:22;12.10;;;7.15;;
73296;SDS011;61524;50.938;11.396;2023-04-28T10:05:49;12.60;;;7.78;;
73296;SDS011;61524;50.938;11.396;2023-04-28T10:08:17;16.98;;;8.52;;
73296;SDS011;61524;50.938;11.396;2023-04-28T10:10:44;15.55;;;8.57;;
73296;SDS011;61524;50.938;11.396;2023-04-28T10:13:10;11.90;;;7.82;;
73296;SDS011;61524;50.938;11.396;2023-04-28T10:15:36;10.82;;;7.40;;
73296;SDS011;61524;50.938;11.396;2023-04-28T10:18:03;14.35;;;8.63;;
73296;SDS011;61524;50.938;11.396;2023-04-28T10:20:30;12.05;;;8.07;;
73296;SDS011;61524;50.938;11.396;2023-04-28T10:25:31;11.25;;;8.82;;
73296;SDS011;61524;50.938;11.396;2023-04-28T10:28:00;14.18;;;9.13;;
73296;SDS011;61524;50.938;11.396;2023-04-28T10:30:30;17.73;;;8.50;;
73296;SDS011;61524;50.938;11.396;2023-04-28T10:40:36;14.88;;;8.77;;
73296;SDS011;61524;50.938;11.396;2023-04-28T10:43:06;12.35;;;7.90;;
73296;SDS011;61524;50.938;11.396;2023-04-28T10:48:17;12.52;;;8.35;;
73296;SDS011;61524;50.938;11.396;2023-04-28T10:58:41;13.15;;;7.55;;
73296;SDS011;61524;50.938;11.396;2023-04-28T11:01:30;12.48;;;7.32;;
73296;SDS011;61524;50.938;11.396;2023-04-28T11:04:07;13.35;;;8.13;;
73296;SDS011;61524;50.938;11.396;2023-04-28T11:06:43;12.73;;;7.00;;
73296;SDS011;61524;50.938;11.396;2023-04-28T11:12:24;11.55;;;8.38;;
73296;SDS011;61524;50.938;11.396;2023-04-28T11:16:53;10.15;;;6.80;;
73296;SDS011;61524;50.938;11.396;2023-04-28T11:19:19;11.63;;;6.65;;
73296;SDS011;61524;50.938;11.396;2023-04-28T11:21:47;12.07;;;7.15;;
73296;SDS011;61524;50.938;11.396;2023-04-28T11:24:13;13.45;;;6.65;;
73296;SDS011;61524;50.938;11.396;2023-04-28T11:26:39;10.43;;;6.53;;
73296;SDS011;61524;50.938;11.396;2023-04-28T11:29:05;13.73;;;7.75;;
73296;SDS011;61524;50.938;11.396;2023-04-28T11:31:31;14.95;;;7.38;;
73296;SDS011;61524;50.938;11.396;2023-04-28T11:34:39;9.95;;;6.90;;
73296;SDS011;61524;50.938;11.396;2023-04-28T11:36:46;10.95;;;7.70;;
73296;SDS011;61524;50.938;11.396;2023-04-28T11:39:12;12.70;;;8.00;;
73296;SDS011;61524;50.938;11.396;2023-04-28T11:41:42;12.43;;;7.65;;
73296;SDS011;61524;50.938;11.396;2023-04-28T11:46:54;12.18;;;7.32;;
73296;SDS011;61524;50.938;11.396;2023-04-28T11:52:07;15.82;;;8.25;;
73296;SDS011;61524;50.938;11.396;2023-04-28T11:54:34;12.52;;;8.07;;
73296;SDS011;61524;50.938;11.396;2023-04-28T11:57:00;12.18;;;7.53;;
73296;SDS011;61524;50.938;11.396;2023-04-28T11:59:29;11.05;;;7.50;;
73296;SDS011;61524;50.938;11.396;2023-04-28T12:01:58;15.05;;;7.60;;
73296;SDS011;61524;50.938;11.396;2023-04-28T12:04:27;11.65;;;7.20;;
73296;SDS011;61524;50.938;11.396;2023-04-28T12:09:34;14.30;;;8.23;;
73296;SDS011;61524;50.938;11.396;2023-04-28T12:12:02;12.63;;;7.60;;
73296;SDS011;61524;50.938;11.396;2023-04-28T12:14:29;13.70;;;8.18;;
73296;SDS011;61524;50.938;11.396;2023-04-28T12:16:57;12.43;;;7.65;;
73296;SDS011;61524;50.938;11.396;2023-04-28T12:19:22;12.00;;;8.02;;
73296;SDS011;61524;50.938;11.396;2023-04-28T12:22:00;14.27;;;7.57;;
73296;SDS011;61524;50.938;11.396;2023-04-28T12:24:30;11.30;;;8.23;;
73296;SDS011;61524;50.938;11.396;2023-04-28T12:29:40;11.32;;;7.57;;
73296;SDS011;61524;50.938;11.396;2023-04-28T12:32:07;10.68;;;6.95;;
73296;SDS011;61524;50.938;11.396;2023-04-28T12:34:35;12.10;;;7.50;;
73296;SDS011;61524;50.938;11.396;2023-04-28T12:37:02;10.52;;;6.40;;
73296;SDS011;61524;50.938;11.396;2023-04-28T12:39:29;10.57;;;7.57;;
73296;SDS011;61524;50.938;11.396;2023-04-28T12:41:56;10.68;;;5.95;;
73296;SDS011;61524;50.938;11.396;2023-04-28T12:44:23;11.70;;;6.68;;
73296;SDS011;61524;50.938;11.396;2023-04-28T12:46:50;9.90;;;6.95;;
73296;SDS011;61524;50.938;11.396;2023-04-28T12:49:16;9.07;;;6.57;;
73296;SDS011;61524;50.938;11.396;2023-04-28T12:51:41;12.07;;;6.85;;
73296;SDS011;61524;50.938;11.396;2023-04-28T12:54:07;11.90;;;6.55;;
73296;SDS011;61524;50.938;11.396;2023-04-28T12:56:33;9.02;;;6.75;;
73296;SDS011;61524;50.938;11.396;2023-04-28T12:58:59;9.80;;;6.10;;
73296;SDS011;61524;50.938;11.396;2023-04-28T13:01:26;10.23;;;6.65;;
73296;SDS011;61524;50.938;11.396;2023-04-28T13:03:52;11.80;;;6.55;;
73296;SDS011;61524;50.938;11.396;2023-04-28T13:06:18;11.43;;;6.00;;
73296;SDS011;61524;50.938;11.396;2023-04-28T13:08:44;8.82;;;6.30;;
73296;SDS011;61524;50.938;11.396;2023-04-28T13:11:10;8.60;;;6.38;;
73296;SDS011;61524;50.938;11.396;2023-04-28T13:13:37;10.65;;;6.28;;
73296;SDS011;61524;50.938;11.396;2023-04-28T13:16:03;8.80;;;6.32;;
73296;SDS011;61524;50.938;11.396;2023-04-28T13:18:29;10.15;;;6.13;;
73296;SDS011;61524;50.938;11.396;2023-04-28T13:20:55;10.60;;;6.82;;
73296;SDS011;61524;50.938;11.396;2023-04-28T13:23:21;9.75;;;5.43;;
73296;SDS011;61524;50.938;11.396;2023-04-28T13:25:47;10.18;;;6.72;;
73296;SDS011;61524;50.938;11.396;2023-04-28T13:28:13;11.60;;;7.05;;
73296;SDS011;61524;50.938;11.396;2023-04-28T13:33:05;10.48;;;5.63;;
73296;SDS011;61524;50.938;11.396;2023-04-28T13:35:31;11.40;;;7.05;;
73296;SDS011;61524;50.938;11.396;2023-04-28T13:37:57;10.02;;;6.68;;
73296;SDS011;61524;50.938;11.396;2023-04-28T13:40:29;10.02;;;6.88;;
73296;SDS011;61524;50.938;11.396;2023-04-28T13:42:56;10.05;;;7.00;;
73296;SDS011;61524;50.938;11.396;2023-04-28T13:45:23;9.93;;;6.20;;
73296;SDS011;61524;50.938;11.396;2023-04-28T13:47:50;9.27;;;6.65;;
73296;SDS011;61524;50.938;11.396;2023-04-28T13:50:15;10.15;;;6.93;;
73296;SDS011;61524;50.938;11.396;2023-04-28T13:52:41;11.93;;;7.25;;
73296;SDS011;61524;50.938;11.396;2023-04-28T13:55:07;11.07;;;6.72;;
73296;SDS011;61524;50.938;11.396;2023-04-28T13:57:33;9.88;;;6.10;;
73296;SDS011;61524;50.938;11.396;2023-04-28T13:59:59;8.88;;;6.28;;
73296;SDS011;61524;50.938;11.396;2023-04-28T14:02:24;8.82;;;5.60;;
73296;SDS011;61524;50.938;11.396;2023-04-28T14:04:51;9.27;;;7.03;;
73296;SDS011;61524;50.938;11.396;2023-04-28T14:07:17;9.23;;;5.60;;
73296;SDS011;61524;50.938;11.396;2023-04-28T14:09:43;10.75;;;5.82;;
73296;SDS011;61524;50.938;11.396;2023-04-28T14:12:09;11.50;;;6.00;;
73296;SDS011;61524;50.938;11.396;2023-04-28T14:14:35;8.50;;;5.55;;
73296;SDS011;61524;50.938;11.396;2023-04-28T14:17:00;9.52;;;5.90;;
73296;SDS011;61524;50.938;11.396;2023-04-28T14:19:26;8.70;;;5.22;;
73296;SDS011;61524;50.938;11.396;2023-04-28T14:21:52;9.18;;;4.97;;
73296;SDS011;61524;50.938;11.396;2023-04-28T14:24:17;7.22;;;4.88;;
73296;SDS011;61524;50.938;11.396;2023-04-28T14:26:44;8.65;;;4.97;;
73296;SDS011;61524;50.938;11.396;2023-04-28T14:29:10;6.47;;;4.00;;
73296;SDS011;61524;50.938;11.396;2023-04-28T14:31:36;5.70;;;4.00;;
73296;SDS011;61524;50.938;11.396;2023-04-28T14:34:02;6.88;;;3.88;;
73296;SDS011;61524;50.938;11.396;2023-04-28T14:36:29;7.57;;;3.75;;
73296;SDS011;61524;50.938;11.396;2023-04-28T14:38:56;5.88;;;3.67;;
73296;SDS011;61524;50.938;11.396;2023-04-28T14:41:21;6.10;;;3.63;;
73296;SDS011;61524;50.938;11.396;2023-04-28T14:43:47;4.40;;;3.13;;
73296;SDS011;61524;50.938;11.396;2023-04-28T14:46:12;5.95;;;3.90;;
73296;SDS011;61524;50.938;11.396;2023-04-28T14:48:38;5.50;;;3.60;;
73296;SDS011;61524;50.938;11.396;2023-04-28T14:51:03;7.93;;;4.05;;
73296;SDS011;61524;50.938;11.396;2023-04-28T14:53:29;6.55;;;4.38;;
73296;SDS011;61524;50.938;11.396;2023-04-28T14:55:56;5.35;;;3.63;;
73296;SDS011;61524;50.938;11.396;2023-04-28T14:58:23;5.20;;;3.45;;
73296;SDS011;61524;50.938;11.396;2023-04-28T15:00:48;6.35;;;4.10;;